Time;durP1;ratioP1;P1;durP2;ratioP2;P2;SDS_P1;SDS_P2;PMS_P1;PMS_P2;Temp;Humidity;BMP_temperature;BMP_pressure;BME280_temperature;BME280_humidity;BME280_pressure;Samples;Min_cycle;Max_cycle;Signal;HPM_P1;HPM_P2
2022/02/19 00:01:24;;;;;;;4.28;0.90;;;;;;;;;;5033884;28;20017;-77
2022/02/19 00:03:50;;;;;;;6.90;1.63;;;;;;;;;;5033134;28;20013;-76
2022/02/19 00:06:16;;;;;;;7.07;1.05;;;;;;;;;;5033622;28;20025;-76
2022/02/19 00:08:41;;;;;;;7.68;1.27;;;;;;;;;;5033861;28;20358;-77
2022/02/19 00:11:07;;;;;;;14.57;1.80;;;;;;;;;;5033984;28;20497;-77
2022/02/19 00:13:32;;;;;;;3.53;1.00;;;;;;;;;;5033958;28;20017;-77
2022/02/19 00:15:58;;;;;;;8.45;1.50;;;;;;;;;;5034987;28;20572;-77
2022/02/19 00:18:23;;;;;;;8.98;1.85;;;;;;;;;;5034973;28;20519;-76
2022/02/19 00:20:48;;;;;;;7.07;1.40;;;;;;;;;;5033334;28;20465;-76
2022/02/19 00:23:13;;;;;;;5.75;1.05;;;;;;;;;;5033049;28;20017;-76
2022/02/19 00:25:38;;;;;;;6.47;1.80;;;;;;;;;;5033167;28;20030;-77
2022/02/19 00:28:04;;;;;;;9.80;1.50;;;;;;;;;;5033107;28;20031;-77
2022/02/19 00:30:29;;;;;;;1.58;0.40;;;;;;;;;;5031673;28;20025;-78
2022/02/19 00:32:54;;;;;;;4.00;0.75;;;;;;;;;;5032967;28;20423;-78
2022/02/19 00:35:21;;;;;;;5.63;0.93;;;;;;;;;;5032945;28;20017;-78
2022/02/19 00:37:46;;;;;;;6.30;1.33;;;;;;;;;;5033048;28;20044;-77
2022/02/19 00:40:12;;;;;;;8.07;1.60;;;;;;;;;;5032964;28;20469;-77
2022/02/19 00:42:37;;;;;;;8.77;1.00;;;;;;;;;;5032461;28;20087;-77
2022/02/19 00:45:02;;;;;;;3.55;0.95;;;;;;;;;;5032642;28;20071;-77
2022/02/19 00:47:27;;;;;;;1.98;0.80;;;;;;;;;;5031422;28;20032;-77
2022/02/19 00:49:52;;;;;;;6.32;0.93;;;;;;;;;;5032695;28;20022;-77
2022/02/19 00:52:18;;;;;;;1.35;0.60;;;;;;;;;;5032222;28;20014;-76
2022/02/19 00:54:43;;;;;;;6.32;1.08;;;;;;;;;;5031332;28;20562;-77
2022/02/19 00:57:08;;;;;;;5.22;1.02;;;;;;;;;;5032615;28;20021;-77
2022/02/19 00:59:34;;;;;;;4.22;1.05;;;;;;;;;;5032602;28;20052;-77
2022/02/19 01:01:59;;;;;;;5.95;0.93;;;;;;;;;;5032021;28;20021;-76
2022/02/19 01:04:24;;;;;;;7.18;1.63;;;;;;;;;;5032520;28;20465;-77
2022/02/19 01:06:49;;;;;;;3.10;0.68;;;;;;;;;;5032702;28;20196;-75
2022/02/19 01:09:14;;;;;;;5.45;1.65;;;;;;;;;;5032894;28;20025;-76
2022/02/19 01:11:40;;;;;;;5.55;1.25;;;;;;;;;;5033208;28;20504;-76
2022/02/19 01:14:08;;;;;;;14.15;1.15;;;;;;;;;;5033459;28;20484;-75
2022/02/19 01:16:34;;;;;;;;;;;;;;;;;;5033766;28;20025;-77
2022/02/19 01:18:59;;;;;;;6.80;1.45;;;;;;;;;;5032601;28;20011;-76
2022/02/19 01:21:24;;;;;;;9.82;1.58;;;;;;;;;;5032200;28;20021;-77
2022/02/19 01:23:49;;;;;;;7.68;2.13;;;;;;;;;;5031905;28;20398;-77
2022/02/19 01:26:14;;;;;;;2.67;0.73;;;;;;;;;;5029981;28;20029;-76
2022/02/19 01:28:40;;;;;;;6.43;1.88;;;;;;;;;;5032112;28;20502;-77
2022/02/19 01:31:05;;;;;;;6.45;1.30;;;;;;;;;;5032046;28;20017;-78
2022/02/19 01:33:30;;;;;;;7.97;1.88;;;;;;;;;;5031847;28;20029;-78
2022/02/19 01:35:55;;;;;;;10.27;1.17;;;;;;;;;;5032075;28;20021;-77
2022/02/19 01:38:20;;;;;;;3.42;0.50;;;;;;;;;;5032108;28;20036;-77
2022/02/19 01:40:46;;;;;;;5.15;0.50;;;;;;;;;;5047335;28;20505;-77
2022/02/19 01:43:11;;;;;;;4.32;0.80;;;;;;;;;;5030512;28;20481;-76
2022/02/19 01:45:37;;;;;;;9.75;1.30;;;;;;;;;;5032039;28;20507;-76
2022/02/19 01:48:02;;;;;;;2.00;0.60;;;;;;;;;;5030767;28;20076;-77
2022/02/19 01:50:27;;;;;;;4.55;0.80;;;;;;;;;;5032024;28;20417;-77
2022/02/19 01:52:52;;;;;;;8.60;1.10;;;;;;;;;;5031932;28;20404;-77
2022/02/19 01:55:18;;;;;;;1.52;0.75;;;;;;;;;;5030759;28;20017;-77
2022/02/19 01:57:43;;;;;;;6.47;1.33;;;;;;;;;;5031891;28;20472;-77
2022/02/19 02:00:08;;;;;;;2.80;1.23;;;;;;;;;;5031949;28;20048;-78
2022/02/19 02:02:34;;;;;;;10.68;1.40;;;;;;;;;;5031502;28;20025;-78
2022/02/19 02:04:59;;;;;;;9.07;1.90;;;;;;;;;;5032338;28;20389;-78
2022/02/19 02:07:25;;;;;;;10.05;1.98;;;;;;;;;;5032101;28;20564;-77
2022/02/19 02:09:51;;;;;;;7.38;0.90;;;;;;;;;;5030597;28;20041;-77
2022/02/19 02:12:16;;;;;;;7.57;1.48;;;;;;;;;;5030655;28;20080;-77
2022/02/19 02:14:42;;;;;;;7.00;1.02;;;;;;;;;;5033173;28;20477;-76
2022/02/19 02:17:08;;;;;;;16.60;2.13;;;;;;;;;;5033703;28;20029;-76
2022/02/19 02:19:33;;;;;;;12.70;2.00;;;;;;;;;;5033471;28;20026;-77
2022/02/19 02:21:58;;;;;;;10.50;1.30;;;;;;;;;;5031809;28;20204;-77
2022/02/19 02:24:24;;;;;;;4.18;0.85;;;;;;;;;;5031742;28;20491;-77
2022/02/19 02:26:50;;;;;;;3.70;1.15;;;;;;;;;;5031663;28;20489;-76
2022/02/19 02:29:15;;;;;;;0.80;0.28;;;;;;;;;;5031601;28;20033;-77
2022/02/19 02:31:40;;;;;;;7.03;1.55;;;;;;;;;;5030385;28;20025;-78
2022/02/19 02:34:05;;;;;;;5.28;0.70;;;;;;;;;;5031559;28;20388;-77
2022/02/19 02:36:31;;;;;;;9.32;0.85;;;;;;;;;;5031868;28;20473;-76
2022/02/19 02:38:58;;;;;;;5.18;0.80;;;;;;;;;;5035045;28;20017;-76
2022/02/19 02:41:23;;;;;;;4.68;0.90;;;;;;;;;;5035099;28;20018;-76
2022/02/19 02:43:48;;;;;;;1.20;0.45;;;;;;;;;;5033535;28;20029;-76
2022/02/19 02:46:13;;;;;;;4.97;1.10;;;;;;;;;;5033657;28;20120;-77
2022/02/19 02:48:38;;;;;;;2.15;0.35;;;;;;;;;;5035127;28;20056;-75
2022/02/19 02:51:05;;;;;;;5.85;1.00;;;;;;;;;;5033684;28;20053;-77
2022/02/19 02:53:30;;;;;;;1.70;0.32;;;;;;;;;;5034622;28;20082;-76
2022/02/19 02:55:55;;;;;;;5.15;0.70;;;;;;;;;;5034886;28;20116;-76
2022/02/19 02:58:21;;;;;;;2.90;0.63;;;;;;;;;;5034851;28;20115;-77
2022/02/19 03:00:46;;;;;;;4.10;0.77;;;;;;;;;;5033493;28;20017;-76
2022/02/19 03:03:11;;;;;;;8.32;1.35;;;;;;;;;;5034570;28;20151;-75
2022/02/19 03:05:37;;;;;;;2.90;0.65;;;;;;;;;;5035083;28;20027;-77
2022/02/19 03:08:02;;;;;;;4.50;0.95;;;;;;;;;;5034590;28;20048;-76
2022/02/19 03:10:27;;;;;;;4.40;0.68;;;;;;;;;;5034425;28;20476;-75
2022/02/19 03:12:52;;;;;;;6.64;1.10;;;;;;;;;;5034181;28;20030;-76
2022/02/19 03:15:21;;;;;;;5.57;0.50;;;;;;;;;;5034548;28;20025;-76
2022/02/19 03:17:47;;;;;;;13.18;1.38;;;;;;;;;;5034648;28;20101;-76
2022/02/19 03:20:16;;;;;;;6.10;0.98;;;;;;;;;;5034842;28;20049;-75
2022/02/19 03:22:41;;;;;;;8.68;1.02;;;;;;;;;;5034444;28;20017;-76
2022/02/19 03:25:07;;;;;;;7.35;1.10;;;;;;;;;;5034859;28;20288;-75
2022/02/19 03:27:32;;;;;;;1.55;0.30;;;;;;;;;;5034757;28;20075;-76
2022/02/19 03:29:57;;;;;;;3.75;0.90;;;;;;;;;;5034293;28;20022;-76
2022/02/19 03:32:23;;;;;;;3.05;0.88;;;;;;;;;;5033978;28;20021;-77
2022/02/19 03:34:48;;;;;;;1.98;0.55;;;;;;;;;;5034479;28;20409;-76
2022/02/19 03:37:13;;;;;;;4.22;0.77;;;;;;;;;;5034327;28;20096;-76
2022/02/19 03:39:38;;;;;;;4.70;0.60;;;;;;;;;;5034465;28;20388;-75
2022/02/19 03:42:04;;;;;;;2.30;0.52;;;;;;;;;;5032591;28;20473;-75
2022/02/19 03:44:29;;;;;;;5.65;0.90;;;;;;;;;;5033886;28;20013;-76
2022/02/19 03:46:54;;;;;;;5.55;1.30;;;;;;;;;;5033878;28;20021;-75
2022/02/19 03:49:19;;;;;;;3.65;0.75;;;;;;;;;;5031600;28;20199;-77
2022/02/19 03:51:45;;;;;;;5.07;0.93;;;;;;;;;;5032272;28;20032;-75
2022/02/19 03:54:10;;;;;;;4.45;0.60;;;;;;;;;;5033599;28;20017;-76
2022/02/19 03:56:35;;;;;;;2.05;0.30;;;;;;;;;;5033522;28;20408;-76
2022/02/19 03:59:00;;;;;;;3.30;0.60;;;;;;;;;;5033472;28;20053;-77
2022/02/19 04:01:25;;;;;;;3.17;0.70;;;;;;;;;;5033910;28;20014;-76
2022/02/19 04:03:51;;;;;;;4.40;0.90;;;;;;;;;;5033331;28;20385;-78
2022/02/19 04:06:16;;;;;;;3.70;0.63;;;;;;;;;;5033532;28;20025;-76
2022/02/19 04:08:41;;;;;;;5.85;0.68;;;;;;;;;;5033606;28;20502;-76
2022/02/19 04:11:06;;;;;;;4.85;0.57;;;;;;;;;;5032119;28;20579;-75
2022/02/19 04:13:32;;;;;;;3.20;0.98;;;;;;;;;;5033017;28;20013;-76
2022/02/19 04:15:57;;;;;;;7.93;0.80;;;;;;;;;;5031849;28;20029;-76
2022/02/19 04:18:22;;;;;;;5.00;0.88;;;;;;;;;;5031948;28;20473;-76
2022/02/19 04:20:47;;;;;;;4.45;1.10;;;;;;;;;;5033231;28;20059;-76
2022/02/19 04:23:12;;;;;;;6.13;0.70;;;;;;;;;;5032909;28;20094;-77
2022/02/19 04:25:38;;;;;;;1.88;0.60;;;;;;;;;;5033294;28;20021;-76
2022/02/19 04:28:04;;;;;;;4.38;0.60;;;;;;;;;;5033253;28;20022;-75
2022/02/19 04:30:29;;;;;;;9.63;1.02;;;;;;;;;;5032941;28;20036;-76
2022/02/19 04:32:57;;;;;;;3.17;0.52;;;;;;;;;;5032843;28;20025;-76
2022/02/19 04:35:23;;;;;;;4.82;0.63;;;;;;;;;;5032991;28;20025;-76
2022/02/19 04:37:48;;;;;;;2.15;0.93;;;;;;;;;;5031627;28;20022;-76
2022/02/19 04:40:13;;;;;;;2.92;0.75;;;;;;;;;;5032955;28;20018;-76
2022/02/19 04:42:39;;;;;;;4.88;0.77;;;;;;;;;;5031248;28;20021;-74
2022/02/19 04:45:05;;;;;;;5.00;0.70;;;;;;;;;;5031697;28;20032;-76
2022/02/19 04:47:30;;;;;;;0.77;0.50;;;;;;;;;;5031698;28;20032;-76
2022/02/19 04:49:55;;;;;;;3.97;1.17;;;;;;;;;;5031465;28;20059;-76
2022/02/19 04:52:21;;;;;;;2.10;0.65;;;;;;;;;;5032479;28;20083;-75
2022/02/19 04:54:46;;;;;;;4.28;0.77;;;;;;;;;;5031403;28;20068;-75
2022/02/19 04:57:11;;;;;;;3.95;0.80;;;;;;;;;;5031475;28;20016;-75
2022/02/19 04:59:36;;;;;;;4.63;0.73;;;;;;;;;;5032281;28;20017;-74
2022/02/19 05:02:01;;;;;;;6.95;1.20;;;;;;;;;;5032338;28;20017;-74
2022/02/19 05:04:27;;;;;;;6.82;1.10;;;;;;;;;;5032370;28;20500;-77
2022/02/19 05:06:52;;;;;;;6.03;1.13;;;;;;;;;;5032727;28;20021;-76
2022/02/19 05:09:17;;;;;;;5.28;0.77;;;;;;;;;;5032438;28;20021;-76
2022/02/19 05:11:42;;;;;;;5.25;0.70;;;;;;;;;;5031618;28;20013;-76
2022/02/19 05:14:08;;;;;;;3.33;0.63;;;;;;;;;;5031903;28;20414;-75
2022/02/19 05:16:33;;;;;;;5.80;1.00;;;;;;;;;;5032865;28;20622;-76
2022/02/19 05:18:58;;;;;;;4.95;0.88;;;;;;;;;;5032780;28;20049;-77
2022/02/19 05:21:24;;;;;;;1.08;0.50;;;;;;;;;;5031715;28;20389;-77
2022/02/19 05:23:49;;;;;;;4.10;0.73;;;;;;;;;;5032422;28;20028;-77
2022/02/19 05:26:14;;;;;;;3.63;0.50;;;;;;;;;;5032691;28;20029;-75
2022/02/19 05:28:41;;;;;;;2.97;0.82;;;;;;;;;;5032677;28;20503;-76
2022/02/19 05:31:06;;;;;;;1.23;0.20;;;;;;;;;;5032729;28;20021;-76
2022/02/19 05:33:32;;;;;;;4.47;0.80;;;;;;;;;;5032850;28;20028;-75
2022/02/19 05:35:57;;;;;;;2.53;0.43;;;;;;;;;;5031452;28;20444;-76
2022/02/19 05:38:23;;;;;;;8.85;0.98;;;;;;;;;;5032881;28;20022;-77
2022/02/19 05:40:48;;;;;;;4.40;1.15;;;;;;;;;;5031791;28;20018;-76
2022/02/19 05:43:13;;;;;;;8.27;1.23;;;;;;;;;;5032817;28;20040;-76
2022/02/19 05:45:41;;;;;;;3.65;0.40;;;;;;;;;;5033503;28;20025;-76
2022/02/19 05:48:06;;;;;;;6.68;1.08;;;;;;;;;;5034083;28;20028;-77
2022/02/19 05:50:31;;;;;;;5.18;0.80;;;;;;;;;;5032668;28;20412;-76
2022/02/19 05:52:57;;;;;;;1.92;0.60;;;;;;;;;;5032709;28;20045;-76
2022/02/19 05:55:22;;;;;;;4.47;0.93;;;;;;;;;;5032890;28;20056;-76
2022/02/19 05:57:47;;;;;;;6.10;1.27;;;;;;;;;;5031469;28;20021;-75
2022/02/19 06:00:12;;;;;;;6.43;0.98;;;;;;;;;;5032427;28;20017;-76
2022/02/19 06:02:38;;;;;;;0.95;0.40;;;;;;;;;;5032140;28;20101;-77
2022/02/19 06:05:03;;;;;;;2.58;0.57;;;;;;;;;;5032796;28;20057;-76
2022/02/19 06:07:30;;;;;;;5.47;0.98;;;;;;;;;;5041894;28;20028;-76
2022/02/19 06:09:55;;;;;;;2.75;0.45;;;;;;;;;;5031181;28;20053;-77
2022/02/19 06:12:20;;;;;;;2.78;0.40;;;;;;;;;;5032588;28;20422;-76
2022/02/19 06:14:45;;;;;;;4.43;1.67;;;;;;;;;;5035917;28;20091;-76
2022/02/19 06:17:11;;;;;;;7.25;1.00;;;;;;;;;;5035996;28;20072;-76
2022/02/19 06:19:36;;;;;;;5.57;0.98;;;;;;;;;;5036033;28;20028;-76
2022/02/19 06:22:01;;;;;;;3.70;0.88;;;;;;;;;;5035822;28;20315;-76
2022/02/19 06:24:26;;;;;;;6.45;1.10;;;;;;;;;;5035802;28;20018;-76
2022/02/19 06:26:51;;;;;;;6.82;1.05;;;;;;;;;;5035936;28;20026;-76
2022/02/19 06:29:17;;;;;;;5.13;0.65;;;;;;;;;;5035549;28;20025;-76
2022/02/19 06:31:43;;;;;;;2.55;0.55;;;;;;;;;;5035711;28;20017;-76
2022/02/19 06:34:08;;;;;;;7.10;0.93;;;;;;;;;;5033977;28;20385;-74
2022/02/19 06:36:33;;;;;;;8.75;1.00;;;;;;;;;;5035498;28;20086;-74
2022/02/19 06:38:58;;;;;;;3.92;0.60;;;;;;;;;;5034189;28;20013;-76
2022/02/19 06:41:24;;;;;;;2.78;0.63;;;;;;;;;;5035232;28;20484;-75
2022/02/19 06:43:49;;;;;;;3.63;0.90;;;;;;;;;;5033463;28;20067;-76
2022/02/19 06:46:14;;;;;;;3.63;0.80;;;;;;;;;;5035225;28;20505;-76
2022/02/19 06:48:39;;;;;;;4.15;0.77;;;;;;;;;;5035320;28;20033;-77
2022/02/19 06:51:04;;;;;;;4.88;0.50;;;;;;;;;;5035043;28;20396;-75
2022/02/19 06:53:30;;;;;;;4.30;0.75;;;;;;;;;;5034527;28;20481;-75
2022/02/19 06:55:55;;;;;;;0.68;0.32;;;;;;;;;;5034973;28;20028;-76
2022/02/19 06:58:20;;;;;;;4.30;0.68;;;;;;;;;;5033976;28;20431;-77
2022/02/19 07:00:47;;;;;;;5.43;1.00;;;;;;;;;;5035028;28;20022;-77
2022/02/19 07:03:12;;;;;;;4.18;0.65;;;;;;;;;;5034632;28;20022;-76
2022/02/19 07:05:37;;;;;;;2.10;0.43;;;;;;;;;;5034972;28;20028;-76
2022/02/19 07:08:02;;;;;;;6.07;1.00;;;;;;;;;;5034992;28;20392;-77
2022/02/19 07:10:28;;;;;;;5.25;0.82;;;;;;;;;;5034512;28;20082;-76
2022/02/19 07:12:53;;;;;;;4.68;0.73;;;;;;;;;;5034364;28;20047;-77
2022/02/19 07:15:20;;;;;;;1.70;0.43;;;;;;;;;;5034659;28;20080;-77
2022/02/19 07:17:49;;;;;;;3.15;0.38;;;;;;;;;;5034596;28;20017;-77
2022/02/19 07:20:15;;;;;;;3.65;0.82;;;;;;;;;;5034484;28;20087;-75
2022/02/19 07:22:40;;;;;;;5.63;0.85;;;;;;;;;;5032877;28;20465;-74
2022/02/19 07:25:05;;;;;;;3.13;0.60;;;;;;;;;;5034487;28;20021;-75
2022/02/19 07:27:41;;;;;;;3.85;0.93;;;;;;;;;;5033145;28;20048;-75
2022/02/19 07:30:07;;;;;;;0.90;0.50;;;;;;;;;;5034750;28;20033;-75
2022/02/19 07:32:34;;;;;;;3.83;0.70;;;;;;;;;;5034466;28;20093;-77
2022/02/19 07:34:59;;;;;;;5.07;0.95;;;;;;;;;;5033133;28;20491;-75
2022/02/19 07:37:24;;;;;;;0.63;0.25;;;;;;;;;;5033139;28;20209;-74
2022/02/19 07:39:50;;;;;;;4.32;0.80;;;;;;;;;;5034127;28;20017;-75
2022/02/19 07:42:16;;;;;;;3.88;0.75;;;;;;;;;;5034020;28;20067;-74
2022/02/19 07:44:41;;;;;;;2.28;0.60;;;;;;;;;;5033377;28;20431;-77
2022/02/19 07:47:07;;;;;;;4.15;1.00;;;;;;;;;;5035893;28;20029;-77
2022/02/19 08:00:28;;;;;;;3.90;0.95;;;;;;;;;;5035223;28;20019;-76
2022/02/19 08:02:53;;;;;;;2.33;0.70;;;;;;;;;;5036055;28;20073;-76
2022/02/19 08:05:18;;;;;;;3.50;0.65;;;;;;;;;;5038651;28;20017;-76
2022/02/19 08:07:43;;;;;;;6.60;0.75;;;;;;;;;;5043957;28;20021;-74
2022/02/19 08:10:09;;;;;;;5.15;1.42;;;;;;;;;;5042122;28;20029;-76
2022/02/19 08:12:34;;;;;;;5.72;0.90;;;;;;;;;;5045843;28;20029;-76
2022/02/19 08:14:59;;;;;;;3.92;0.50;;;;;;;;;;5045723;28;20017;-75
2022/02/19 08:17:25;;;;;;;4.68;1.17;;;;;;;;;;5050913;28;20105;-76
2022/02/19 08:19:50;;;;;;;8.00;1.08;;;;;;;;;;5041721;28;20052;-75
2022/02/19 08:22:16;;;;;;;1.83;0.60;;;;;;;;;;5036072;28;20028;-75
2022/02/19 08:24:41;;;;;;;3.53;0.70;;;;;;;;;;5037728;28;20025;-76
2022/02/19 08:27:08;;;;;;;2.92;0.57;;;;;;;;;;5037040;28;20485;-77
2022/02/19 08:29:33;;;;;;;3.33;0.70;;;;;;;;;;5036428;28;20022;-76
2022/02/19 08:31:58;;;;;;;3.25;0.85;;;;;;;;;;5033999;28;20362;-75
2022/02/19 08:34:23;;;;;;;4.47;0.88;;;;;;;;;;5034915;28;20029;-74
2022/02/19 08:36:49;;;;;;;6.68;1.30;;;;;;;;;;5033029;28;20018;-76
2022/02/19 08:39:14;;;;;;;5.63;0.65;;;;;;;;;;5034966;28;20067;-74
2022/02/19 08:41:40;;;;;;;4.78;1.15;;;;;;;;;;5035605;28;20017;-76
2022/02/19 08:44:05;;;;;;;7.32;1.00;;;;;;;;;;5033651;28;20029;-76
2022/02/19 08:46:31;;;;;;;5.40;0.82;;;;;;;;;;5033900;28;20164;-76
2022/02/19 08:48:56;;;;;;;2.95;0.90;;;;;;;;;;5033111;28;20022;-75
2022/02/19 08:51:21;;;;;;;2.55;0.95;;;;;;;;;;5030726;28;20036;-76
2022/02/19 08:53:46;;;;;;;5.15;1.10;;;;;;;;;;5033194;28;20459;-75
2022/02/19 08:56:11;;;;;;;7.68;1.63;;;;;;;;;;5033509;28;20021;-76
2022/02/19 08:58:36;;;;;;;6.10;1.17;;;;;;;;;;5039292;28;20018;-79
2022/02/19 09:01:02;;;;;;;2.83;1.02;;;;;;;;;;5026531;28;20018;-80
2022/02/19 09:03:27;;;;;;;3.13;0.82;;;;;;;;;;5032608;28;20554;-79
2022/02/19 09:05:52;;;;;;;3.00;0.82;;;;;;;;;;5032477;28;20029;-78
2022/02/19 09:08:17;;;;;;;4.05;0.68;;;;;;;;;;5031349;28;20480;-79
2022/02/19 09:10:43;;;;;;;4.53;1.65;;;;;;;;;;5032631;28;20060;-79
2022/02/19 09:13:08;;;;;;;2.47;0.60;;;;;;;;;;5032708;28;20025;-79
2022/02/19 09:15:33;;;;;;;8.35;1.38;;;;;;;;;;5032439;28;20026;-78
2022/02/19 09:17:59;;;;;;;5.38;1.10;;;;;;;;;;5032336;28;20377;-78
2022/02/19 09:20:24;;;;;;;3.58;0.80;;;;;;;;;;5032160;28;20025;-78
2022/02/19 09:22:50;;;;;;;4.15;0.70;;;;;;;;;;5027875;28;20032;-79
2022/02/19 09:25:15;;;;;;;2.28;0.70;;;;;;;;;;5031451;28;20522;-79
2022/02/19 09:27:41;;;;;;;3.15;1.00;;;;;;;;;;5027527;28;20025;-79
2022/02/19 09:30:07;;;;;;;8.20;0.90;;;;;;;;;;5025880;28;20025;-79
2022/02/19 09:32:33;;;;;;;5.63;1.52;;;;;;;;;;5032767;28;20033;-79
2022/02/19 09:34:58;;;;;;;6.07;1.17;;;;;;;;;;5029770;28;20018;-78
2022/02/19 09:37:29;;;;;;;6.07;0.85;;;;;;;;;;5028542;28;20021;-78
2022/02/19 09:39:55;;;;;;;6.55;1.08;;;;;;;;;;5031454;28;20028;-79
2022/02/19 09:42:21;;;;;;;3.47;1.15;;;;;;;;;;5028845;28;20025;-78
2022/02/19 09:44:47;;;;;;;3.97;0.85;;;;;;;;;;5030023;28;20033;-79
2022/02/19 09:47:12;;;;;;;7.05;1.00;;;;;;;;;;5029984;28;20862;-77
2022/02/19 09:49:38;;;;;;;3.38;1.13;;;;;;;;;;5035867;28;20045;-79
2022/02/19 09:52:03;;;;;;;5.13;1.02;;;;;;;;;;5035681;28;20396;-79
2022/02/19 09:54:28;;;;;;;6.05;1.15;;;;;;;;;;5034644;28;20106;-78
2022/02/19 09:56:53;;;;;;;2.30;0.77;;;;;;;;;;5035784;28;20020;-78
2022/02/19 09:59:19;;;;;;;8.13;0.90;;;;;;;;;;5035812;28;20101;-78
2022/02/19 10:01:58;;;;;;;4.03;0.80;;;;;;;;;;5035652;28;20009;-79
2022/02/19 10:04:27;;;;;;;4.85;0.77;;;;;;;;;;5035518;28;20022;-78
2022/02/19 10:06:52;;;;;;;2.88;0.47;;;;;;;;;;5035902;28;20022;-78
2022/02/19 10:09:18;;;;;;;3.92;0.80;;;;;;;;;;5035791;28;20469;-78
2022/02/19 10:11:44;;;;;;;6.90;1.67;;;;;;;;;;5035681;28;20037;-79
2022/02/19 10:14:18;;;;;;;2.05;0.63;;;;;;;;;;5035509;28;20075;-79
2022/02/19 10:16:44;;;;;;;6.47;1.02;;;;;;;;;;5034596;28;20025;-79
2022/02/19 10:19:09;;;;;;;6.75;1.17;;;;;;;;;;5036560;28;20499;-80
2022/02/19 10:21:34;;;;;;;6.50;1.15;;;;;;;;;;5036312;28;20024;-80
2022/02/19 10:23:59;;;;;;;4.25;0.90;;;;;;;;;;5037012;28;20036;-79
2022/02/19 10:26:25;;;;;;;4.05;0.90;;;;;;;;;;5036085;28;20068;-79
2022/02/19 10:29:01;;;;;;;7.95;1.35;;;;;;;;;;5034369;28;20029;-79
2022/02/19 10:31:26;;;;;;;6.53;1.42;;;;;;;;;;5035662;28;20033;-79
2022/02/19 10:34:03;;;;;;;6.75;0.93;;;;;;;;;;5035433;28;20074;-79
2022/02/19 10:36:39;;;;;;;3.47;0.90;;;;;;;;;;5035428;28;20029;-78
2022/02/19 10:39:08;;;;;;;6.57;1.10;;;;;;;;;;5035445;28;20024;-79
2022/02/19 10:41:34;;;;;;;3.92;1.13;;;;;;;;;;5035906;28;20013;-78
2022/02/19 10:44:17;;;;;;;2.50;0.88;;;;;;;;;;5036821;28;20045;-79
2022/02/19 10:46:42;;;;;;;3.90;0.98;;;;;;;;;;5036971;28;20029;-79
2022/02/19 10:49:11;;;;;;;1.98;0.73;;;;;;;;;;5035673;28;20124;-79
2022/02/19 10:51:36;;;;;;;7.32;0.98;;;;;;;;;;5036551;28;20060;-79
2022/02/19 10:54:02;;;;;;;4.20;0.95;;;;;;;;;;5036463;28;20029;-80
2022/02/19 10:56:27;;;;;;;5.18;1.13;;;;;;;;;;5036729;28;20018;-81
2022/02/19 10:59:09;;;;;;;2.63;0.65;;;;;;;;;;5036800;28;20500;-80
2022/02/19 11:01:41;;;;;;;5.88;1.10;;;;;;;;;;5034716;28;20071;-79
2022/02/19 11:04:10;;;;;;;3.35;0.90;;;;;;;;;;5034949;28;20024;-80
2022/02/19 11:06:35;;;;;;;;;;;;;;;;;;5035246;28;20025;-78
2022/02/19 11:09:01;;;;;;;6.25;1.67;;;;;;;;;;5034004;28;19905;-79
2022/02/19 11:11:27;;;;;;;5.55;1.15;;;;;;;;;;5035048;28;20396;-78
2022/02/19 11:13:52;;;;;;;2.97;0.68;;;;;;;;;;5033053;28;20043;-79
2022/02/19 11:16:18;;;;;;;3.20;0.70;;;;;;;;;;5034825;28;20025;-79
2022/02/19 11:18:44;;;;;;;5.40;0.98;;;;;;;;;;5033486;28;20017;-80
2022/02/19 11:21:09;;;;;;;4.97;0.90;;;;;;;;;;5034364;28;20028;-79
2022/02/19 11:23:35;;;;;;;4.95;1.00;;;;;;;;;;5035101;28;20419;-79
2022/02/19 11:26:01;;;;;;;6.20;1.10;;;;;;;;;;5034965;28;20021;-80
2022/02/19 11:28:31;;;;;;;5.43;0.70;;;;;;;;;;5034985;28;20105;-80
2022/02/19 11:30:56;;;;;;;3.80;1.02;;;;;;;;;;5033681;28;20029;-78
2022/02/19 11:33:22;;;;;;;4.57;1.27;;;;;;;;;;5034580;28;20075;-80
2022/02/19 11:35:48;;;;;;;5.95;1.10;;;;;;;;;;5035003;28;20447;-79
2022/02/19 11:38:27;;;;;;;3.67;1.00;;;;;;;;;;5035395;28;20024;-78
2022/02/19 11:40:56;;;;;;;5.53;1.25;;;;;;;;;;5034697;28;20018;-77
2022/02/19 11:43:33;;;;;;;4.85;1.05;;;;;;;;;;5029251;28;20042;-79
2022/02/19 11:46:00;;;;;;;4.07;1.00;;;;;;;;;;5034377;28;20554;-78
2022/02/19 11:48:27;;;;;;;6.57;1.40;;;;;;;;;;5025444;28;20052;-78
2022/02/19 11:51:07;;;;;;;7.45;1.60;;;;;;;;;;5030162;28;20092;-80
2022/02/19 11:53:34;;;;;;;3.95;0.90;;;;;;;;;;5024415;28;20500;-80
2022/02/19 11:55:59;;;;;;;4.22;0.93;;;;;;;;;;5025929;28;20021;-79
2022/02/19 11:58:25;;;;;;;6.03;1.27;;;;;;;;;;5032371;28;20125;-79
2022/02/19 12:00:51;;;;;;;5.57;1.38;;;;;;;;;;5024254;28;20538;-78
2022/02/19 12:03:22;;;;;;;7.60;1.15;;;;;;;;;;5016571;28;20141;-79
2022/02/19 12:06:07;;;;;;;5.78;0.90;;;;;;;;;;5017255;28;20053;-79
2022/02/19 12:08:48;;;;;;;8.15;1.33;;;;;;;;;;5033462;28;20024;-78
2022/02/19 12:11:31;;;;;;;5.18;1.13;;;;;;;;;;5032284;28;20060;-79
2022/02/19 12:13:58;;;;;;;3.67;0.70;;;;;;;;;;5019024;28;20123;-78
2022/02/19 12:16:34;;;;;;;5.25;1.08;;;;;;;;;;5032609;28;20021;-79
2022/02/19 12:19:01;;;;;;;5.40;1.13;;;;;;;;;;5038684;28;20132;-80
2022/02/19 12:21:33;;;;;;;8.35;1.13;;;;;;;;;;5038431;28;20021;-81
2022/02/19 12:24:25;;;;;;;4.55;1.00;;;;;;;;;;5035530;28;20092;-81
2022/02/19 12:29:22;;;;;;;2.65;0.90;;;;;;;;;;5035627;28;20030;-80
2022/02/19 12:32:06;;;;;;;5.35;1.23;;;;;;;;;;5035334;28;20071;-81
2022/02/19 12:34:32;;;;;;;8.00;1.40;;;;;;;;;;5034239;28;20013;-77
2022/02/19 12:36:58;;;;;;;4.55;1.02;;;;;;;;;;5032818;28;20025;-78
2022/02/19 12:39:23;;;;;;;3.45;1.00;;;;;;;;;;5032471;28;20354;-79
2022/02/19 12:41:52;;;;;;;4.22;0.77;;;;;;;;;;5032477;28;20492;-77
2022/02/19 12:44:18;;;;;;;6.00;1.05;;;;;;;;;;5031492;28;20032;-77
2022/02/19 12:46:44;;;;;;;7.05;1.10;;;;;;;;;;5031296;28;20513;-77
2022/02/19 12:49:09;;;;;;;6.00;0.90;;;;;;;;;;5030965;28;20021;-76
2022/02/19 12:51:35;;;;;;;4.97;1.10;;;;;;;;;;5030826;28;20053;-77
2022/02/19 12:54:00;;;;;;;5.00;0.88;;;;;;;;;;5032008;28;20040;-76
2022/02/19 12:56:37;;;;;;;2.00;0.47;;;;;;;;;;5032122;28;20045;-78
2022/02/19 12:59:02;;;;;;;3.30;0.90;;;;;;;;;;5032370;28;20023;-77
2022/02/19 13:01:28;;;;;;;2.83;0.80;;;;;;;;;;5032609;28;20376;-76
2022/02/19 13:03:53;;;;;;;5.68;1.00;;;;;;;;;;5032067;28;20013;-77
2022/02/19 13:06:18;;;;;;;5.97;1.00;;;;;;;;;;5032455;28;20048;-76
2022/02/19 13:08:44;;;;;;;4.45;0.90;;;;;;;;;;5032290;28;20025;-76
2022/02/19 13:11:11;;;;;;;11.52;1.27;;;;;;;;;;5031883;28;20033;-76
2022/02/19 13:13:37;;;;;;;3.42;0.77;;;;;;;;;;5031999;28;20029;-77
2022/02/19 13:16:02;;;;;;;4.10;0.80;;;;;;;;;;5030838;28;20036;-76
2022/02/19 13:18:54;;;;;;;6.00;1.02;;;;;;;;;;5032074;28;20108;-76
2022/02/19 13:21:19;;;;;;;3.33;1.13;;;;;;;;;;5028208;28;20037;-78
2022/02/19 13:23:46;;;;;;;4.68;1.42;;;;;;;;;;5031315;28;20047;-78
2022/02/19 13:26:31;;;;;;;4.25;1.27;;;;;;;;;;5030652;28;20030;-76
2022/02/19 13:28:57;;;;;;;3.00;0.90;;;;;;;;;;5031547;28;20471;-76
2022/02/19 13:31:23;;;;;;;5.82;1.30;;;;;;;;;;5029789;28;20036;-76
2022/02/19 13:33:49;;;;;;;5.72;1.30;;;;;;;;;;5031019;28;20023;-77
2022/02/19 13:36:14;;;;;;;6.97;1.33;;;;;;;;;;5031166;28;20022;-78
2022/02/19 13:38:40;;;;;;;5.65;1.10;;;;;;;;;;5031463;28;20104;-77
2022/02/19 13:41:05;;;;;;;6.40;0.85;;;;;;;;;;5031703;28;20100;-77
2022/02/19 13:43:30;;;;;;;5.82;1.40;;;;;;;;;;5031212;28;20044;-76
2022/02/19 13:45:55;;;;;;;4.88;1.05;;;;;;;;;;5031009;28;20037;-77
2022/02/19 13:48:23;;;;;;;4.30;1.15;;;;;;;;;;5031173;28;20108;-77
2022/02/19 13:50:55;;;;;;;6.13;0.93;;;;;;;;;;5030936;28;20025;-77
2022/02/19 13:53:30;;;;;;;4.95;0.90;;;;;;;;;;5025937;28;20025;-77
2022/02/19 13:55:57;;;;;;;6.80;1.10;;;;;;;;;;5031265;28;20476;-77
2022/02/19 13:58:27;;;;;;;6.28;1.17;;;;;;;;;;5026999;28;20014;-77
2022/02/19 14:00:54;;;;;;;6.13;0.93;;;;;;;;;;5024514;28;20083;-77
2022/02/19 14:03:19;;;;;;;6.50;0.80;;;;;;;;;;5031042;28;20052;-76
2022/02/19 14:05:46;;;;;;;4.72;0.90;;;;;;;;;;5031887;28;20029;-76
2022/02/19 14:08:15;;;;;;;6.53;0.95;;;;;;;;;;5028583;28;20481;-77
2022/02/19 14:10:56;;;;;;;5.20;1.38;;;;;;;;;;5025140;28;20057;-77
2022/02/19 14:13:22;;;;;;;5.10;1.30;;;;;;;;;;5027289;28;20014;-76
2022/02/19 14:15:47;;;;;;;7.13;1.00;;;;;;;;;;5030099;28;20528;-77
2022/02/19 14:18:13;;;;;;;7.50;1.10;;;;;;;;;;5031641;28;20024;-76
2022/02/19 14:20:39;;;;;;;4.30;1.45;;;;;;;;;;5031157;28;20018;-76
2022/02/19 14:23:13;;;;;;;5.15;1.63;;;;;;;;;;5029578;28;20017;-77
2022/02/19 14:25:41;;;;;;;2.00;0.80;;;;;;;;;;5031715;28;20029;-78
2022/02/19 14:28:06;;;;;;;3.75;1.02;;;;;;;;;;5031266;28;20025;-75
2022/02/19 14:30:36;;;;;;;4.57;0.90;;;;;;;;;;5040282;28;20029;-80
2022/02/19 14:33:05;;;;;;;4.13;1.27;;;;;;;;;;5035573;28;20014;-79
2022/02/19 14:35:31;;;;;;;5.72;1.30;;;;;;;;;;5035852;28;20022;-81
2022/02/19 14:37:56;;;;;;;5.80;1.63;;;;;;;;;;5041434;28;20022;-80
2022/02/19 14:40:22;;;;;;;5.15;1.00;;;;;;;;;;5044582;28;20020;-81
2022/02/19 14:42:49;;;;;;;8.68;1.05;;;;;;;;;;5043440;28;20444;-80
2022/02/19 14:45:14;;;;;;;4.25;0.82;;;;;;;;;;5046627;28;20028;-80
2022/02/19 14:47:42;;;;;;;3.20;0.90;;;;;;;;;;5033703;28;20009;-80
2022/02/19 14:50:08;;;;;;;6.03;1.30;;;;;;;;;;5026810;28;20028;-81
2022/02/19 14:52:33;;;;;;;4.53;1.10;;;;;;;;;;5042533;28;20025;-81